sensor_id;sensor_type;location;lat;lon;timestamp;temperature;humidity
32476;DHT22;18929;48.008;10.882;2022-09-09T00:00:34;18.50;99.90
32476;DHT22;18929;48.008;10.882;2022-09-09T00:03:12;18.70;99.90
32476;DHT22;18929;48.008;10.882;2022-09-09T00:05:44;18.70;99.90
32476;DHT22;18929;48.008;10.882;2022-09-09T00:08:19;18.80;99.90
32476;DHT22;18929;48.008;10.882;2022-09-09T00:10:50;18.80;99.90
32476;DHT22;18929;48.008;10.882;2022-09-09T00:13:22;18.70;99.90
32476;DHT22;18929;48.008;10.882;2022-09-09T00:15:56;18.90;99.90
32476;DHT22;18929;48.008;10.882;2022-09-09T00:18:31;18.80;99.90
32476;DHT22;18929;48.008;10.882;2022-09-09T00:21:05;18.80;99.90
32476;DHT22;18929;48.008;10.882;2022-09-09T00:23:35;18.70;99.90
32476;DHT22;18929;48.008;10.882;2022-09-09T00:26:08;18.70;99.90
32476;DHT22;18929;48.008;10.882;2022-09-09T00:28:39;18.60;99.90
32476;DHT22;18929;48.008;10.882;2022-09-09T00:31:13;18.60;99.90
32476;DHT22;18929;48.008;10.882;2022-09-09T00:33:43;18.20;99.90
32476;DHT22;18929;48.008;10.882;2022-09-09T00:36:13;18.50;99.90
32476;DHT22;18929;48.008;10.882;2022-09-09T00:38:45;18.50;99.90
32476;DHT22;18929;48.008;10.882;2022-09-09T00:41:20;18.50;99.90
32476;DHT22;18929;48.008;10.882;2022-09-09T00:43:56;18.70;99.90
32476;DHT22;18929;48.008;10.882;2022-09-09T00:46:46;18.80;99.90
32476;DHT22;18929;48.008;10.882;2022-09-09T00:49:26;18.70;99.90
32476;DHT22;18929;48.008;10.882;2022-09-09T00:52:02;18.50;99.90
32476;DHT22;18929;48.008;10.882;2022-09-09T00:54:46;18.60;99.90
32476;DHT22;18929;48.008;10.882;2022-09-09T00:57:23;18.60;99.90
32476;DHT22;18929;48.008;10.882;2022-09-09T00:59:59;18.30;99.90
32476;DHT22;18929;48.008;10.882;2022-09-09T01:02:37;18.00;99.90
32476;DHT22;18929;48.008;10.882;2022-09-09T01:05:11;18.30;99.90
32476;DHT22;18929;48.008;10.882;2022-09-09T01:07:40;18.20;99.90
32476;DHT22;18929;48.008;10.882;2022-09-09T01:10:17;18.10;99.90
32476;DHT22;18929;48.008;10.882;2022-09-09T01:12:51;18.30;99.90
32476;DHT22;18929;48.008;10.882;2022-09-09T01:15:23;18.40;99.90
32476;DHT22;18929;48.008;10.882;2022-09-09T01:17:59;18.30;99.90
32476;DHT22;18929;48.008;10.882;2022-09-09T01:20:33;18.40;99.90
32476;DHT22;18929;48.008;10.882;2022-09-09T01:23:33;18.60;99.90
32476;DHT22;18929;48.008;10.882;2022-09-09T01:26:17;18.50;99.90
32476;DHT22;18929;48.008;10.882;2022-09-09T01:28:47;18.30;99.90
32476;DHT22;18929;48.008;10.882;2022-09-09T01:31:17;18.50;99.90
32476;DHT22;18929;48.008;10.882;2022-09-09T01:33:45;18.50;99.90
32476;DHT22;18929;48.008;10.882;2022-09-09T01:36:17;18.60;99.90
32476;DHT22;18929;48.008;10.882;2022-09-09T01:38:46;18.50;99.90
32476;DHT22;18929;48.008;10.882;2022-09-09T01:41:14;17.70;99.90
32476;DHT22;18929;48.008;10.882;2022-09-09T01:43:41;17.40;99.90
32476;DHT22;18929;48.008;10.882;2022-09-09T01:46:09;17.80;99.90
32476;DHT22;18929;48.008;10.882;2022-09-09T01:48:38;18.10;99.90
32476;DHT22;18929;48.008;10.882;2022-09-09T01:51:07;18.20;99.90
32476;DHT22;18929;48.008;10.882;2022-09-09T01:53:34;18.20;99.90
32476;DHT22;18929;48.008;10.882;2022-09-09T01:56:07;18.20;99.90
32476;DHT22;18929;48.008;10.882;2022-09-09T01:58:47;18.10;99.90
32476;DHT22;18929;48.008;10.882;2022-09-09T02:01:26;18.10;99.90
32476;DHT22;18929;48.008;10.882;2022-09-09T02:03:57;17.70;99.90
32476;DHT22;18929;48.008;10.882;2022-09-09T02:06:28;17.70;99.90
32476;DHT22;18929;48.008;10.882;2022-09-09T02:08:57;18.00;99.90
32476;DHT22;18929;48.008;10.882;2022-09-09T02:11:27;18.00;99.90
32476;DHT22;18929;48.008;10.882;2022-09-09T02:14:00;18.00;99.90
32476;DHT22;18929;48.008;10.882;2022-09-09T02:16:32;18.00;99.90
32476;DHT22;18929;48.008;10.882;2022-09-09T02:19:02;17.90;99.90
32476;DHT22;18929;48.008;10.882;2022-09-09T02:21:31;18.10;99.90
32476;DHT22;18929;48.008;10.882;2022-09-09T02:24:03;18.20;99.90
32476;DHT22;18929;48.008;10.882;2022-09-09T02:26:31;18.20;99.90
32476;DHT22;18929;48.008;10.882;2022-09-09T02:29:03;18.20;99.90
32476;DHT22;18929;48.008;10.882;2022-09-09T02:31:33;18.10;99.90
32476;DHT22;18929;48.008;10.882;2022-09-09T02:34:03;18.10;99.90
32476;DHT22;18929;48.008;10.882;2022-09-09T02:36:32;18.00;99.90
32476;DHT22;18929;48.008;10.882;2022-09-09T02:39:01;17.90;99.90
32476;DHT22;18929;48.008;10.882;2022-09-09T02:41:32;18.00;99.90
32476;DHT22;18929;48.008;10.882;2022-09-09T02:44:02;18.00;99.90
32476;DHT22;18929;48.008;10.882;2022-09-09T02:46:41;18.00;99.90
32476;DHT22;18929;48.008;10.882;2022-09-09T02:49:16;18.00;99.90
32476;DHT22;18929;48.008;10.882;2022-09-09T02:51:50;17.90;99.90
32476;DHT22;18929;48.008;10.882;2022-09-09T02:54:24;17.80;99.90
32476;DHT22;18929;48.008;10.882;2022-09-09T02:56:53;17.80;99.90
32476;DHT22;18929;48.008;10.882;2022-09-09T02:59:25;17.80;99.90
32476;DHT22;18929;48.008;10.882;2022-09-09T03:01:52;17.80;99.90
32476;DHT22;18929;48.008;10.882;2022-09-09T03:04:19;17.80;99.90
32476;DHT22;18929;48.008;10.882;2022-09-09T03:06:46;17.70;99.90
32476;DHT22;18929;48.008;10.882;2022-09-09T03:09:13;17.70;99.90
32476;DHT22;18929;48.008;10.882;2022-09-09T03:11:40;17.80;99.90
32476;DHT22;18929;48.008;10.882;2022-09-09T03:14:07;17.60;99.90
32476;DHT22;18929;48.008;10.882;2022-09-09T03:16:38;17.70;99.90
32476;DHT22;18929;48.008;10.882;2022-09-09T03:19:05;17.70;99.90
32476;DHT22;18929;48.008;10.882;2022-09-09T03:21:32;17.50;99.90
32476;DHT22;18929;48.008;10.882;2022-09-09T03:23:59;17.60;99.90
32476;DHT22;18929;48.008;10.882;2022-09-09T03:26:29;17.40;99.90
32476;DHT22;18929;48.008;10.882;2022-09-09T03:28:56;16.60;99.90
32476;DHT22;18929;48.008;10.882;2022-09-09T03:31:23;17.20;99.90
32476;DHT22;18929;48.008;10.882;2022-09-09T03:33:51;17.00;99.90
32476;DHT22;18929;48.008;10.882;2022-09-09T03:36:18;16.80;99.90
32476;DHT22;18929;48.008;10.882;2022-09-09T03:38:45;17.10;99.90
32476;DHT22;18929;48.008;10.882;2022-09-09T03:41:12;17.20;99.90
32476;DHT22;18929;48.008;10.882;2022-09-09T03:43:39;16.40;99.90
32476;DHT22;18929;48.008;10.882;2022-09-09T03:46:07;16.20;99.90
32476;DHT22;18929;48.008;10.882;2022-09-09T03:48:34;16.80;99.90
32476;DHT22;18929;48.008;10.882;2022-09-09T03:51:02;16.60;99.90
32476;DHT22;18929;48.008;10.882;2022-09-09T03:53:29;17.00;99.90
32476;DHT22;18929;48.008;10.882;2022-09-09T03:55:57;16.80;99.90
32476;DHT22;18929;48.008;10.882;2022-09-09T03:58:26;16.50;99.90
32476;DHT22;18929;48.008;10.882;2022-09-09T04:00:54;16.40;99.90
32476;DHT22;18929;48.008;10.882;2022-09-09T04:03:22;15.80;99.90
32476;DHT22;18929;48.008;10.882;2022-09-09T04:05:50;15.40;99.90
32476;DHT22;18929;48.008;10.882;2022-09-09T04:08:19;16.00;99.90
32476;DHT22;18929;48.008;10.882;2022-09-09T04:10:46;16.60;99.90
32476;DHT22;18929;48.008;10.882;2022-09-09T04:13:14;16.90;99.90
32476;DHT22;18929;48.008;10.882;2022-09-09T04:15:42;16.90;99.90
32476;DHT22;18929;48.008;10.882;2022-09-09T04:18:09;16.90;99.90
32476;DHT22;18929;48.008;10.882;2022-09-09T04:20:37;17.00;99.90
32476;DHT22;18929;48.008;10.882;2022-09-09T04:23:04;17.20;99.90
32476;DHT22;18929;48.008;10.882;2022-09-09T04:25:33;17.00;99.90
32476;DHT22;18929;48.008;10.882;2022-09-09T04:28:00;16.60;99.90
32476;DHT22;18929;48.008;10.882;2022-09-09T04:30:28;16.70;99.90
32476;DHT22;18929;48.008;10.882;2022-09-09T04:32:56;17.00;99.90
32476;DHT22;18929;48.008;10.882;2022-09-09T04:35:23;16.80;99.90
32476;DHT22;18929;48.008;10.882;2022-09-09T04:37:50;16.20;99.90
32476;DHT22;18929;48.008;10.882;2022-09-09T04:40:17;16.40;99.90
32476;DHT22;18929;48.008;10.882;2022-09-09T04:42:45;16.70;99.90
32476;DHT22;18929;48.008;10.882;2022-09-09T04:45:13;17.00;99.90
32476;DHT22;18929;48.008;10.882;2022-09-09T04:47:40;17.20;99.90
32476;DHT22;18929;48.008;10.882;2022-09-09T04:50:08;17.30;99.90
32476;DHT22;18929;48.008;10.882;2022-09-09T04:52:36;17.00;99.90
32476;DHT22;18929;48.008;10.882;2022-09-09T04:55:03;16.50;99.90
32476;DHT22;18929;48.008;10.882;2022-09-09T04:57:31;16.70;99.90
32476;DHT22;18929;48.008;10.882;2022-09-09T05:00:00;16.90;99.90
32476;DHT22;18929;48.008;10.882;2022-09-09T05:02:28;16.80;99.90
32476;DHT22;18929;48.008;10.882;2022-09-09T05:04:55;17.00;99.90
32476;DHT22;18929;48.008;10.882;2022-09-09T05:07:22;17.00;99.90
32476;DHT22;18929;48.008;10.882;2022-09-09T05:09:49;17.10;99.90
32476;DHT22;18929;48.008;10.882;2022-09-09T05:12:16;16.30;99.90
32476;DHT22;18929;48.008;10.882;2022-09-09T05:14:43;16.30;99.90
32476;DHT22;18929;48.008;10.882;2022-09-09T05:17:12;16.70;99.90
32476;DHT22;18929;48.008;10.882;2022-09-09T05:19:38;16.90;99.90
32476;DHT22;18929;48.008;10.882;2022-09-09T05:22:05;17.10;99.90
32476;DHT22;18929;48.008;10.882;2022-09-09T05:24:33;17.20;99.90
32476;DHT22;18929;48.008;10.882;2022-09-09T05:27:00;17.10;99.90
32476;DHT22;18929;48.008;10.882;2022-09-09T05:29:28;16.80;99.90
32476;DHT22;18929;48.008;10.882;2022-09-09T05:31:55;17.00;99.90
32476;DHT22;18929;48.008;10.882;2022-09-09T05:34:23;17.10;99.90
32476;DHT22;18929;48.008;10.882;2022-09-09T05:36:50;17.00;99.90
32476;DHT22;18929;48.008;10.882;2022-09-09T05:39:17;17.30;99.90
32476;DHT22;18929;48.008;10.882;2022-09-09T05:41:44;17.40;99.90
32476;DHT22;18929;48.008;10.882;2022-09-09T05:44:11;17.50;99.90
32476;DHT22;18929;48.008;10.882;2022-09-09T05:46:39;17.20;99.90
32476;DHT22;18929;48.008;10.882;2022-09-09T05:49:06;16.30;99.90
32476;DHT22;18929;48.008;10.882;2022-09-09T05:51:35;16.50;99.90
32476;DHT22;18929;48.008;10.882;2022-09-09T05:54:02;16.70;99.90
32476;DHT22;18929;48.008;10.882;2022-09-09T05:56:29;16.90;99.90
32476;DHT22;18929;48.008;10.882;2022-09-09T05:58:58;16.80;99.90
32476;DHT22;18929;48.008;10.882;2022-09-09T06:01:26;16.20;99.90
32476;DHT22;18929;48.008;10.882;2022-09-09T06:03:54;16.40;99.90
32476;DHT22;18929;48.008;10.882;2022-09-09T06:06:24;16.60;99.90
32476;DHT22;18929;48.008;10.882;2022-09-09T06:08:54;16.60;99.90
32476;DHT22;18929;48.008;10.882;2022-09-09T06:11:23;16.70;99.90
32476;DHT22;18929;48.008;10.882;2022-09-09T06:13:50;16.60;99.90
32476;DHT22;18929;48.008;10.882;2022-09-09T06:16:23;16.80;99.90
32476;DHT22;18929;48.008;10.882;2022-09-09T06:18:50;16.80;99.90
32476;DHT22;18929;48.008;10.882;2022-09-09T06:21:19;16.90;99.90
32476;DHT22;18929;48.008;10.882;2022-09-09T06:23:48;16.60;99.90
32476;DHT22;18929;48.008;10.882;2022-09-09T06:26:18;16.60;99.90
32476;DHT22;18929;48.008;10.882;2022-09-09T06:28:46;16.90;99.90
32476;DHT22;18929;48.008;10.882;2022-09-09T06:31:15;17.00;99.90
32476;DHT22;18929;48.008;10.882;2022-09-09T06:33:43;17.10;99.90
32476;DHT22;18929;48.008;10.882;2022-09-09T06:36:12;17.00;99.90
32476;DHT22;18929;48.008;10.882;2022-09-09T06:38:42;17.30;99.90
32476;DHT22;18929;48.008;10.882;2022-09-09T06:41:50;17.50;99.90
32476;DHT22;18929;48.008;10.882;2022-09-09T06:44:26;17.50;99.90
32476;DHT22;18929;48.008;10.882;2022-09-09T06:46:53;17.40;99.90
32476;DHT22;18929;48.008;10.882;2022-09-09T06:49:20;17.10;99.90
32476;DHT22;18929;48.008;10.882;2022-09-09T06:55:50;16.80;99.90
32476;DHT22;18929;48.008;10.882;2022-09-09T06:58:28;17.00;99.90
32476;DHT22;18929;48.008;10.882;2022-09-09T07:01:13;17.10;99.90
32476;DHT22;18929;48.008;10.882;2022-09-09T07:03:41;17.40;99.90
32476;DHT22;18929;48.008;10.882;2022-09-09T07:06:12;17.30;99.90
32476;DHT22;18929;48.008;10.882;2022-09-09T07:08:40;17.40;99.90
32476;DHT22;18929;48.008;10.882;2022-09-09T07:11:08;17.10;99.90
32476;DHT22;18929;48.008;10.882;2022-09-09T07:13:36;17.10;99.90
32476;DHT22;18929;48.008;10.882;2022-09-09T07:16:04;17.20;99.90
32476;DHT22;18929;48.008;10.882;2022-09-09T07:18:32;17.30;99.90
32476;DHT22;18929;48.008;10.882;2022-09-09T07:21:01;17.40;99.90
32476;DHT22;18929;48.008;10.882;2022-09-09T07:23:28;17.60;99.90
32476;DHT22;18929;48.008;10.882;2022-09-09T07:25:56;17.50;99.90
32476;DHT22;18929;48.008;10.882;2022-09-09T07:28:23;17.50;99.90
32476;DHT22;18929;48.008;10.882;2022-09-09T07:51:39;17.80;99.90
32476;DHT22;18929;48.008;10.882;2022-09-09T07:54:20;17.90;99.90
32476;DHT22;18929;48.008;10.882;2022-09-09T07:56:50;18.00;99.90
32476;DHT22;18929;48.008;10.882;2022-09-09T07:59:24;18.00;99.90
32476;DHT22;18929;48.008;10.882;2022-09-09T08:01:53;17.80;99.90
32476;DHT22;18929;48.008;10.882;2022-09-09T08:04:21;17.70;99.90
32476;DHT22;18929;48.008;10.882;2022-09-09T08:06:51;17.90;99.90
32476;DHT22;18929;48.008;10.882;2022-09-09T08:09:20;18.00;99.90
32476;DHT22;18929;48.008;10.882;2022-09-09T08:11:47;18.10;99.90
32476;DHT22;18929;48.008;10.882;2022-09-09T08:14:14;18.20;99.90
32476;DHT22;18929;48.008;10.882;2022-09-09T08:16:43;18.20;99.90
32476;DHT22;18929;48.008;10.882;2022-09-09T08:20:05;18.40;99.90
32476;DHT22;18929;48.008;10.882;2022-09-09T11:54:50;18.00;99.90
32476;DHT22;18929;48.008;10.882;2022-09-09T11:57:30;18.20;99.90
32476;DHT22;18929;48.008;10.882;2022-09-09T11:59:59;18.40;99.90
32476;DHT22;18929;48.008;10.882;2022-09-09T12:02:27;18.10;99.90
32476;DHT22;18929;48.008;10.882;2022-09-09T12:30:48;19.00;99.90
32476;DHT22;18929;48.008;10.882;2022-09-09T12:48:09;20.70;99.90
32476;DHT22;18929;48.008;10.882;2022-09-09T12:50:43;21.00;99.90
32476;DHT22;18929;48.008;10.882;2022-09-09T12:56:57;20.90;99.90
32476;DHT22;18929;48.008;10.882;2022-09-09T12:59:26;20.90;99.90
32476;DHT22;18929;48.008;10.882;2022-09-09T13:01:57;20.80;99.90
32476;DHT22;18929;48.008;10.882;2022-09-09T13:04:51;20.80;99.90
32476;DHT22;18929;48.008;10.882;2022-09-09T13:07:20;20.90;99.90
32476;DHT22;18929;48.008;10.882;2022-09-09T13:09:49;21.00;99.90
32476;DHT22;18929;48.008;10.882;2022-09-09T13:12:18;21.10;99.90
32476;DHT22;18929;48.008;10.882;2022-09-09T13:14:48;20.70;99.90
32476;DHT22;18929;48.008;10.882;2022-09-09T13:17:20;20.80;99.90
32476;DHT22;18929;48.008;10.882;2022-09-09T13:19:48;20.90;99.90
32476;DHT22;18929;48.008;10.882;2022-09-09T13:22:26;20.90;99.90
32476;DHT22;18929;48.008;10.882;2022-09-09T13:25:01;21.00;99.90
32476;DHT22;18929;48.008;10.882;2022-09-09T13:27:51;21.10;99.90
32476;DHT22;18929;48.008;10.882;2022-09-09T13:30:21;21.10;99.90
32476;DHT22;18929;48.008;10.882;2022-09-09T13:33:00;20.70;99.90
32476;DHT22;18929;48.008;10.882;2022-09-09T13:35:28;20.80;99.90
32476;DHT22;18929;48.008;10.882;2022-09-09T13:38:29;20.00;99.90
32476;DHT22;18929;48.008;10.882;2022-09-09T13:41:02;20.50;99.90
32476;DHT22;18929;48.008;10.882;2022-09-09T13:43:31;20.90;99.90
32476;DHT22;18929;48.008;10.882;2022-09-09T13:46:05;20.90;99.90
32476;DHT22;18929;48.008;10.882;2022-09-09T13:48:32;21.10;99.90
32476;DHT22;18929;48.008;10.882;2022-09-09T13:51:01;21.10;99.90
32476;DHT22;18929;48.008;10.882;2022-09-09T13:53:31;21.10;99.90
32476;DHT22;18929;48.008;10.882;2022-09-09T13:55:59;21.20;99.90
32476;DHT22;18929;48.008;10.882;2022-09-09T13:58:26;21.20;99.90
32476;DHT22;18929;48.008;10.882;2022-09-09T14:00:53;21.20;99.90
32476;DHT22;18929;48.008;10.882;2022-09-09T14:03:20;21.10;99.90
32476;DHT22;18929;48.008;10.882;2022-09-09T14:08:24;21.10;99.90
32476;DHT22;18929;48.008;10.882;2022-09-09T14:10:53;21.30;99.90
32476;DHT22;18929;48.008;10.882;2022-09-09T14:13:25;21.40;99.90
32476;DHT22;18929;48.008;10.882;2022-09-09T14:15:52;21.40;99.90
32476;DHT22;18929;48.008;10.882;2022-09-09T14:18:19;21.40;99.90
32476;DHT22;18929;48.008;10.882;2022-09-09T14:20:48;21.40;99.90
32476;DHT22;18929;48.008;10.882;2022-09-09T14:23:16;21.30;99.90
32476;DHT22;18929;48.008;10.882;2022-09-09T14:25:44;21.10;99.90
32476;DHT22;18929;48.008;10.882;2022-09-09T14:28:14;21.10;99.90
32476;DHT22;18929;48.008;10.882;2022-09-09T14:30:42;21.30;99.90
32476;DHT22;18929;48.008;10.882;2022-09-09T14:33:11;21.10;99.90
32476;DHT22;18929;48.008;10.882;2022-09-09T14:35:38;21.30;99.90
32476;DHT22;18929;48.008;10.882;2022-09-09T14:38:07;21.30;99.90
32476;DHT22;18929;48.008;10.882;2022-09-09T14:40:34;21.20;99.90
32476;DHT22;18929;48.008;10.882;2022-09-09T14:43:02;21.20;99.90
32476;DHT22;18929;48.008;10.882;2022-09-09T14:45:30;21.40;99.90
32476;DHT22;18929;48.008;10.882;2022-09-09T14:47:57;21.50;99.90
32476;DHT22;18929;48.008;10.882;2022-09-09T14:50:25;21.40;99.90
32476;DHT22;18929;48.008;10.882;2022-09-09T14:52:52;21.60;99.90
32476;DHT22;18929;48.008;10.882;2022-09-09T14:55:19;21.60;99.90
32476;DHT22;18929;48.008;10.882;2022-09-09T14:57:46;21.60;99.90
32476;DHT22;18929;48.008;10.882;2022-09-09T15:00:14;20.30;99.90
32476;DHT22;18929;48.008;10.882;2022-09-09T15:02:43;21.00;99.90
32476;DHT22;18929;48.008;10.882;2022-09-09T15:05:09;20.70;99.90
32476;DHT22;18929;48.008;10.882;2022-09-09T15:07:37;20.90;99.90
32476;DHT22;18929;48.008;10.882;2022-09-09T15:10:04;20.90;99.90
32476;DHT22;18929;48.008;10.882;2022-09-09T15:12:32;21.30;99.90
32476;DHT22;18929;48.008;10.882;2022-09-09T15:15:01;21.60;99.90
32476;DHT22;18929;48.008;10.882;2022-09-09T15:17:29;21.50;99.90
32476;DHT22;18929;48.008;10.882;2022-09-09T15:19:57;21.40;99.90
32476;DHT22;18929;48.008;10.882;2022-09-09T15:22:24;21.40;99.90
32476;DHT22;18929;48.008;10.882;2022-09-09T15:24:51;21.30;99.90
32476;DHT22;18929;48.008;10.882;2022-09-09T15:27:18;21.50;99.90
32476;DHT22;18929;48.008;10.882;2022-09-09T15:29:45;21.80;99.90
32476;DHT22;18929;48.008;10.882;2022-09-09T15:32:12;21.70;99.90
32476;DHT22;18929;48.008;10.882;2022-09-09T15:34:39;21.60;99.90
32476;DHT22;18929;48.008;10.882;2022-09-09T15:37:09;22.00;99.90
32476;DHT22;18929;48.008;10.882;2022-09-09T15:39:39;22.10;99.90
32476;DHT22;18929;48.008;10.882;2022-09-09T15:42:06;21.10;99.90
32476;DHT22;18929;48.008;10.882;2022-09-09T15:44:39;21.40;99.90
32476;DHT22;18929;48.008;10.882;2022-09-09T15:47:07;21.90;99.90
32476;DHT22;18929;48.008;10.882;2022-09-09T15:49:38;22.00;99.90
32476;DHT22;18929;48.008;10.882;2022-09-09T15:52:05;22.00;99.90
32476;DHT22;18929;48.008;10.882;2022-09-09T15:54:34;22.00;99.90
32476;DHT22;18929;48.008;10.882;2022-09-09T15:57:06;21.90;99.90
32476;DHT22;18929;48.008;10.882;2022-09-09T15:59:33;21.90;99.90
32476;DHT22;18929;48.008;10.882;2022-09-09T16:02:00;21.70;98.30
32476;DHT22;18929;48.008;10.882;2022-09-09T16:04:28;21.90;99.90
32476;DHT22;18929;48.008;10.882;2022-09-09T16:06:56;22.10;99.90
32476;DHT22;18929;48.008;10.882;2022-09-09T16:09:25;22.20;99.60
32476;DHT22;18929;48.008;10.882;2022-09-09T16:11:55;21.80;99.90
32476;DHT22;18929;48.008;10.882;2022-09-09T16:14:23;21.90;99.90
32476;DHT22;18929;48.008;10.882;2022-09-09T16:16:51;21.80;97.50
32476;DHT22;18929;48.008;10.882;2022-09-09T16:19:19;21.60;98.80
32476;DHT22;18929;48.008;10.882;2022-09-09T16:21:48;21.80;99.70
32476;DHT22;18929;48.008;10.882;2022-09-09T16:24:16;21.40;99.90
32476;DHT22;18929;48.008;10.882;2022-09-09T16:26:46;21.70;99.90
32476;DHT22;18929;48.008;10.882;2022-09-09T16:29:15;21.90;99.00
32476;DHT22;18929;48.008;10.882;2022-09-09T16:31:43;21.90;99.90
32476;DHT22;18929;48.008;10.882;2022-09-09T16:34:10;21.80;99.90
32476;DHT22;18929;48.008;10.882;2022-09-09T16:36:39;21.70;99.90
32476;DHT22;18929;48.008;10.882;2022-09-09T16:39:08;21.90;99.90
32476;DHT22;18929;48.008;10.882;2022-09-09T16:41:36;21.80;99.10
32476;DHT22;18929;48.008;10.882;2022-09-09T16:44:05;22.10;99.90
32476;DHT22;18929;48.008;10.882;2022-09-09T16:46:35;21.90;99.90
32476;DHT22;18929;48.008;10.882;2022-09-09T16:49:06;21.50;99.90
32476;DHT22;18929;48.008;10.882;2022-09-09T16:51:34;21.80;99.90
32476;DHT22;18929;48.008;10.882;2022-09-09T16:54:03;21.60;99.20
32476;DHT22;18929;48.008;10.882;2022-09-09T16:56:32;21.50;99.90
32476;DHT22;18929;48.008;10.882;2022-09-09T16:59:01;21.70;99.90
32476;DHT22;18929;48.008;10.882;2022-09-09T17:01:30;21.70;98.70
32476;DHT22;18929;48.008;10.882;2022-09-09T17:04:01;21.60;99.90
32476;DHT22;18929;48.008;10.882;2022-09-09T17:06:29;21.90;99.90
32476;DHT22;18929;48.008;10.882;2022-09-09T17:08:57;22.10;99.90
32476;DHT22;18929;48.008;10.882;2022-09-09T17:11:25;21.80;98.40
32476;DHT22;18929;48.008;10.882;2022-09-09T17:13:53;21.50;99.90
32476;DHT22;18929;48.008;10.882;2022-09-09T17:16:22;21.50;99.30
32476;DHT22;18929;48.008;10.882;2022-09-09T17:18:50;21.30;99.30
32476;DHT22;18929;48.008;10.882;2022-09-09T17:21:21;21.40;99.90
32476;DHT22;18929;48.008;10.882;2022-09-09T17:23:49;21.40;99.90
32476;DHT22;18929;48.008;10.882;2022-09-09T17:26:18;21.70;99.90
32476;DHT22;18929;48.008;10.882;2022-09-09T17:28:45;21.50;98.70
32476;DHT22;18929;48.008;10.882;2022-09-09T17:31:14;20.60;99.90
32476;DHT22;18929;48.008;10.882;2022-09-09T17:33:43;21.10;99.90
32476;DHT22;18929;48.008;10.882;2022-09-09T17:36:13;21.00;99.90
32476;DHT22;18929;48.008;10.882;2022-09-09T17:38:43;21.50;99.90
32476;DHT22;18929;48.008;10.882;2022-09-09T17:41:12;21.40;99.90
32476;DHT22;18929;48.008;10.882;2022-09-09T17:43:40;21.80;99.90
32476;DHT22;18929;48.008;10.882;2022-09-09T17:46:09;21.40;99.90
32476;DHT22;18929;48.008;10.882;2022-09-09T17:48:37;21.50;99.90
32476;DHT22;18929;48.008;10.882;2022-09-09T17:51:04;21.90;99.90
32476;DHT22;18929;48.008;10.882;2022-09-09T17:53:35;21.50;99.80
32476;DHT22;18929;48.008;10.882;2022-09-09T17:56:07;21.50;99.90
32476;DHT22;18929;48.008;10.882;2022-09-09T17:58:35;21.30;99.80
32476;DHT22;18929;48.008;10.882;2022-09-09T18:01:03;20.60;99.90
32476;DHT22;18929;48.008;10.882;2022-09-09T18:03:32;20.70;99.90
32476;DHT22;18929;48.008;10.882;2022-09-09T18:06:01;21.30;99.90
32476;DHT22;18929;48.008;10.882;2022-09-09T18:08:28;21.70;99.90
32476;DHT22;18929;48.008;10.882;2022-09-09T18:10:55;21.20;99.90
32476;DHT22;18929;48.008;10.882;2022-09-09T18:13:23;21.30;99.90
32476;DHT22;18929;48.008;10.882;2022-09-09T18:15:54;21.70;99.90
32476;DHT22;18929;48.008;10.882;2022-09-09T18:18:21;21.80;99.90
32476;DHT22;18929;48.008;10.882;2022-09-09T18:20:57;21.90;99.90
32476;DHT22;18929;48.008;10.882;2022-09-09T18:23:24;21.80;99.90
32476;DHT22;18929;48.008;10.882;2022-09-09T18:25:51;21.60;99.90
32476;DHT22;18929;48.008;10.882;2022-09-09T18:28:18;21.70;99.90
32476;DHT22;18929;48.008;10.882;2022-09-09T18:30:47;21.70;99.90
32476;DHT22;18929;48.008;10.882;2022-09-09T18:33:14;21.70;99.90
32476;DHT22;18929;48.008;10.882;2022-09-09T18:35:41;21.60;99.90
32476;DHT22;18929;48.008;10.882;2022-09-09T18:38:09;21.60;99.90
32476;DHT22;18929;48.008;10.882;2022-09-09T18:40:36;21.60;99.90
32476;DHT22;18929;48.008;10.882;2022-09-09T18:43:03;21.50;99.90
32476;DHT22;18929;48.008;10.882;2022-09-09T18:45:30;21.50;99.90
32476;DHT22;18929;48.008;10.882;2022-09-09T18:48:02;21.40;99.90
32476;DHT22;18929;48.008;10.882;2022-09-09T18:50:29;21.30;99.90
32476;DHT22;18929;48.008;10.882;2022-09-09T18:52:56;21.30;99.90
32476;DHT22;18929;48.008;10.882;2022-09-09T18:55:23;21.30;99.90
32476;DHT22;18929;48.008;10.882;2022-09-09T18:57:50;21.40;99.90
32476;DHT22;18929;48.008;10.882;2022-09-09T19:02:59;21.40;99.90
32476;DHT22;18929;48.008;10.882;2022-09-09T19:05:28;20.80;99.90
32476;DHT22;18929;48.008;10.882;2022-09-09T19:07:56;19.60;99.90
32476;DHT22;18929;48.008;10.882;2022-09-09T19:10:23;18.20;99.90
32476;DHT22;18929;48.008;10.882;2022-09-09T19:12:50;19.50;99.90
32476;DHT22;18929;48.008;10.882;2022-09-09T19:15:17;20.20;99.90
32476;DHT22;18929;48.008;10.882;2022-09-09T19:17:43;20.10;99.90
32476;DHT22;18929;48.008;10.882;2022-09-09T19:20:10;20.70;99.90
32476;DHT22;18929;48.008;10.882;2022-09-09T19:22:39;20.80;99.90
32476;DHT22;18929;48.008;10.882;2022-09-09T19:25:06;20.80;99.90
32476;DHT22;18929;48.008;10.882;2022-09-09T19:27:33;20.80;99.90
32476;DHT22;18929;48.008;10.882;2022-09-09T19:30:02;20.90;99.90
32476;DHT22;18929;48.008;10.882;2022-09-09T19:32:29;20.90;99.90
32476;DHT22;18929;48.008;10.882;2022-09-09T19:34:56;20.90;99.90
32476;DHT22;18929;48.008;10.882;2022-09-09T19:37:23;20.90;99.90
32476;DHT22;18929;48.008;10.882;2022-09-09T19:39:51;20.90;99.90
32476;DHT22;18929;48.008;10.882;2022-09-09T19:42:18;20.80;99.90
32476;DHT22;18929;48.008;10.882;2022-09-09T19:44:45;20.80;99.90
32476;DHT22;18929;48.008;10.882;2022-09-09T19:47:12;20.80;99.90
32476;DHT22;18929;48.008;10.882;2022-09-09T19:49:39;20.80;99.90
32476;DHT22;18929;48.008;10.882;2022-09-09T19:52:06;20.80;99.90
32476;DHT22;18929;48.008;10.882;2022-09-09T19:54:33;20.70;99.90
32476;DHT22;18929;48.008;10.882;2022-09-09T19:57:04;20.60;99.90
32476;DHT22;18929;48.008;10.882;2022-09-09T19:59:31;20.60;99.90
32476;DHT22;18929;48.008;10.882;2022-09-09T20:01:58;20.60;99.90
32476;DHT22;18929;48.008;10.882;2022-09-09T20:04:25;20.50;99.90
32476;DHT22;18929;48.008;10.882;2022-09-09T20:06:52;20.50;99.90
32476;DHT22;18929;48.008;10.882;2022-09-09T20:09:20;20.40;99.90
32476;DHT22;18929;48.008;10.882;2022-09-09T20:11:48;20.50;99.90
32476;DHT22;18929;48.008;10.882;2022-09-09T20:14:17;20.40;99.90
32476;DHT22;18929;48.008;10.882;2022-09-09T20:16:45;20.40;99.90